Time;durP1;ratioP1;P1;durP2;ratioP2;P2;SDS_P1;SDS_P2;PMS_P1;PMS_P2;Temp;Humidity;BMP_temperature;BMP_pressure;BME280_temperature;BME280_humidity;BME280_pressure;Samples;Min_cycle;Max_cycle;Signal;HPM_P1;HPM_P2
2022/02/12 00:01:00;;;;;;;;;;;;;;;;;;5095945;28;19916;-75
2022/02/12 00:03:25;;;;;;;;;;;;;;;;;;5095908;28;19916;-82
2022/02/12 00:05:51;;;;;;;;;;;;;;;;;;5095873;28;19920;-76
2022/02/12 00:08:16;;;;;;;;;;;;;;;;;;5095826;28;19916;-82
2022/02/12 00:10:42;;;;;;;;;;;;;;;;;;5079189;28;19923;-74
2022/02/12 00:13:10;;;;;;;;;;;;;;;;;;5116032;28;20015;-80
2022/02/12 00:15:35;;;;;;;;;;;;;;;;;;5116287;28;19922;-82
2022/02/12 00:18:01;;;;;;;;;;;;;;;;;;5115702;28;19916;-80
2022/02/12 00:20:26;;;;;;;;;;;;;;;;;;5098417;28;19916;-81
2022/02/12 00:22:52;;;;;;;;;;;;;;;;;;5118257;28;19916;-81
2022/02/12 00:25:17;;;;;;;;;;;;;;;;;;5118487;28;20031;-81
2022/02/12 00:27:42;;;;;;;;;;;;;;;;;;5120247;28;19927;-74
2022/02/12 00:30:08;;;;;;;;;;;;;;;;;;5120787;28;19916;-81
2022/02/12 00:32:34;;;;;;;;;;;;;;;;;;5116947;28;19930;-75
2022/02/12 00:34:59;;;;;;;;;;;;;;;;;;5115662;28;20371;-76
2022/02/12 00:37:28;;;;;;;;;;;;;;;;;;5115793;28;19926;-75
2022/02/12 00:39:53;;;;;;;;;;;;;;;;;;5115754;28;20264;-76
2022/02/12 00:42:19;;;;;;;;;;;;;;;;;;5115661;28;19923;-82
2022/02/12 00:44:44;;;;;;;;;;;;;;;;;;5115493;28;19915;-76
2022/02/12 00:47:10;;;;;;;;;;;;;;;;;;5115543;28;20353;-81
2022/02/12 00:49:36;;;;;;;;;;;;;;;;;;5115454;28;19922;-74
2022/02/12 00:52:02;;;;;;;;;;;;;;;;;;5115555;28;19926;-74
2022/02/12 00:54:27;;;;;;;;;;;;;;;;;;5096857;28;19927;-77
2022/02/12 00:56:52;;;;;;;;;;;;;;;;;;5115364;28;20034;-77
2022/02/12 00:59:18;;;;;;;;;;;;;;;;;;5115341;28;19912;-77
2022/02/12 01:01:43;;;;;;;;;;;;;;;;;;5115303;28;19938;-75
2022/02/12 01:04:09;;;;;;;;;;;;;;;;;;5096882;28;20006;-78
2022/02/12 01:06:34;;;;;;;;;;;;;;;;;;5115309;28;20283;-80
2022/02/12 01:09:00;;;;;;;;;;;;;;;;;;5115034;28;20418;-74
2022/02/12 01:11:25;;;;;;;;;;;;;;;;;;5115108;28;19998;-81
2022/02/12 01:13:51;;;;;;;;;;;;;;;;;;5115097;28;20011;-78
2022/02/12 01:16:16;;;;;;;;;;;;;;;;;;5096697;28;20379;-83
2022/02/12 01:18:42;;;;;;;;;;;;;;;;;;5096617;28;19963;-80
2022/02/12 01:21:07;;;;;;;;;;;;;;;;;;5114926;28;20265;-75
2022/02/12 01:23:33;;;;;;;;;;;;;;;;;;5114731;28;19967;-76
2022/02/12 01:25:58;;;;;;;;;;;;;;;;;;5114680;28;20015;-82
2022/02/12 01:28:23;;;;;;;;;;;;;;;;;;5114671;28;19965;-82
2022/02/12 01:30:49;;;;;;;;;;;;;;;;;;5113727;28;19926;-82
2022/02/12 01:33:15;;;;;;;;;;;;;;;;;;5114654;28;19919;-81
2022/02/12 01:35:41;;;;;;;;;;;;;;;;;;5114569;28;19916;-83
2022/02/12 01:38:06;;;;;;;;;;;;;;;;;;5096241;28;19916;-81
2022/02/12 01:40:32;;;;;;;;;;;;;;;;;;5114509;28;19923;-82
2022/02/12 01:43:02;;;;;;;;;;;;;;;;;;5114284;28;19951;-81
2022/02/12 01:45:27;;;;;;;;;;;;;;;;;;5114382;28;20379;-81
2022/02/12 01:47:53;;;;;;;;;;;;;;;;;;5114360;28;19927;-81
2022/02/12 01:50:19;;;;;;;;;;;;;;;;;;5114178;28;20429;-82
2022/02/12 01:52:44;;;;;;;;;;;;;;;;;;5114077;28;19923;-82
2022/02/12 01:55:11;;;;;;;;;;;;;;;;;;5096633;28;20019;-81
2022/02/12 01:57:36;;;;;;;;;;;;;;;;;;5093790;28;19998;-76
2022/02/12 02:00:04;;;;;;;;;;;;;;;;;;5093881;28;20000;-82
2022/02/12 02:02:29;;;;;;;;;;;;;;;;;;5093611;28;20388;-74
2022/02/12 02:04:54;;;;;;;;;;;;;;;;;;5093532;28;19947;-81
2022/02/12 02:07:20;;;;;;;;;;;;;;;;;;5075522;28;19916;-82
2022/02/12 02:09:45;;;;;;;;;;;;;;;;;;5093670;28;19923;-74
2022/02/12 02:12:11;;;;;;;;;;;;;;;;;;5093559;28;19997;-82
2022/02/12 02:14:38;;;;;;;;;;;;;;;;;;5093515;28;19939;-77
2022/02/12 02:17:04;;;;;;;;;;;;;;;;;;5093509;28;20311;-80
2022/02/12 02:19:32;;;;;;;;;;;;;;;;;;5093543;28;19923;-79
2022/02/12 02:21:59;;;;;;;;;;;;;;;;;;5093499;28;19981;-78
2022/02/12 02:24:24;;;;;;;;;;;;;;;;;;5093254;28;19958;-74
2022/02/12 02:26:50;;;;;;;;;;;;;;;;;;5093190;28;19920;-82
2022/02/12 02:29:15;;;;;;;;;;;;;;;;;;5093286;28;20310;-82
2022/02/12 02:31:41;;;;;;;;;;;;;;;;;;5093525;28;19922;-82
2022/02/12 02:34:10;;;;;;;;;;;;;;;;;;5093170;28;19938;-79
2022/02/12 02:36:36;;;;;;;;;;;;;;;;;;5093221;28;19923;-82
2022/02/12 02:39:01;;;;;;;;;;;;;;;;;;5093098;28;19916;-81
2022/02/12 02:41:27;;;;;;;;;;;;;;;;;;5074822;28;19924;-81
2022/02/12 02:43:52;;;;;;;;;;;;;;;;;;5093205;28;20090;-79
2022/02/12 02:46:18;;;;;;;;;;;;;;;;;;5093188;28;19998;-82
2022/02/12 02:48:43;;;;;;;;;;;;;;;;;;5093093;28;19916;-81
2022/02/12 02:56:37;;;;;;;;;;;;;;;;;;5113413;28;20371;-77
2022/02/12 02:59:02;;;;;;;;;;;;;;;;;;5113469;28;19920;-73
2022/02/12 03:01:28;;;;;;;;;;;;;;;;;;5113329;28;20396;-82
2022/02/12 03:03:54;;;;;;;;;;;;;;;;;;5113081;28;19916;-74
2022/02/12 03:06:21;;;;;;;;;;;;;;;;;;5113177;28;19916;-82
2022/02/12 03:08:47;;;;;;;;;;;;;;;;;;5113169;28;19944;-78
2022/02/12 03:11:13;;;;;;;;;;;;;;;;;;5113195;28;20396;-81
2022/02/12 03:13:39;;;;;;;;;;;;;;;;;;5113210;28;20268;-81
2022/02/12 03:16:05;;;;;;;;;;;;;;;;;;5113261;28;20286;-81
2022/02/12 03:18:31;;;;;;;;;;;;;;;;;;5113173;28;19915;-82
2022/02/12 03:20:56;;;;;;;;;;;;;;;;;;5113082;28;19920;-81
2022/02/12 03:23:22;;;;;;;;;;;;;;;;;;5094787;28;19923;-77
2022/02/12 03:25:47;;;;;;;;;;;;;;;;;;5113151;28;20014;-82
2022/02/12 03:28:12;;;;;;;;;;;;;;;;;;5113036;28;19967;-81
2022/02/12 03:30:39;;;;;;;;;;;;;;;;;;5112970;28;19922;-81
2022/02/12 03:33:05;;;;;;;;;;;;;;;;;;5112972;28;19916;-82
2022/02/12 03:35:31;;;;;;;;;;;;;;;;;;5112940;28;20003;-81
2022/02/12 03:38:06;;;;;;;;;;;;;;;;;;5112974;28;19916;-79
2022/02/12 03:40:33;;;;;;;;;;;;;;;;;;5112967;28;19981;-74
2022/02/12 03:42:58;;;;;;;;;;;;;;;;;;5094540;28;19963;-77
2022/02/12 03:45:24;;;;;;;;;;;;;;;;;;5112915;28;19973;-81
2022/02/12 03:47:49;;;;;;;;;;;;;;;;;;5112939;28;19922;-83
2022/02/12 03:50:15;;;;;;;;;;;;;;;;;;5094574;28;19916;-74
2022/02/12 03:52:41;;;;;;;;;;;;;;;;;;5112702;28;19939;-81
2022/02/12 03:55:06;;;;;;;;;;;;;;;;;;5098096;28;19927;-75
2022/02/12 03:57:32;;;;;;;;;;;;;;;;;;5116434;28;19916;-77
2022/02/12 03:59:57;;;;;;;;;;;;;;;;;;5116703;28;19916;-81
2022/02/12 04:02:25;;;;;;;;;;;;;;;;;;5116412;28;20006;-81
2022/02/12 04:04:51;;;;;;;;;;;;;;;;;;5116149;28;19915;-80
2022/02/12 04:07:16;;;;;;;;;;;;;;;;;;5116255;28;19915;-82
2022/02/12 04:09:41;;;;;;;;;;;;;;;;;;5116182;28;19916;-83
2022/02/12 04:12:07;;;;;;;;;;;;;;;;;;5116272;28;20006;-74
2022/02/12 04:14:32;;;;;;;;;;;;;;;;;;5116376;28;19927;-79
2022/02/12 04:16:58;;;;;;;;;;;;;;;;;;5097766;28;20624;-82
2022/02/12 04:19:23;;;;;;;;;;;;;;;;;;5116050;28;20260;-82
2022/02/12 04:21:49;;;;;;;;;;;;;;;;;;5116069;28;19919;-73
2022/02/12 04:24:14;;;;;;;;;;;;;;;;;;5115901;28;19916;-82
2022/02/12 04:26:39;;;;;;;;;;;;;;;;;;5097576;28;19916;-76
2022/02/12 04:29:05;;;;;;;;;;;;;;;;;;5115806;28;20018;-83
2022/02/12 04:31:30;;;;;;;;;;;;;;;;;;5115846;28;19959;-83
2022/02/12 04:33:56;;;;;;;;;;;;;;;;;;5115764;28;19924;-78
2022/02/12 04:36:21;;;;;;;;;;;;;;;;;;5115782;28;20379;-75
2022/02/12 04:38:46;;;;;;;;;;;;;;;;;;5115617;28;19926;-77
2022/02/12 04:41:12;;;;;;;;;;;;;;;;;;5098137;28;19919;-78
2022/02/12 04:43:39;;;;;;;;;;;;;;;;;;5120471;28;19916;-78
2022/02/12 04:46:04;;;;;;;;;;;;;;;;;;5119624;28;19938;-75
2022/02/12 04:48:30;;;;;;;;;;;;;;;;;;5116387;28;19916;-82
2022/02/12 04:50:55;;;;;;;;;;;;;;;;;;5115837;28;19920;-81
2022/02/12 04:53:21;;;;;;;;;;;;;;;;;;5115229;28;20260;-80
2022/02/12 04:55:48;;;;;;;;;;;;;;;;;;5114540;28;20520;-79
2022/02/12 04:58:14;;;;;;;;;;;;;;;;;;5131275;27;19919;-76
2022/02/12 05:00:41;;;;;;;;;;;;;;;;;;5115307;28;19916;-77
2022/02/12 05:03:07;;;;;;;;;;;;;;;;;;5115364;28;19923;-75
2022/02/12 05:05:32;;;;;;;;;;;;;;;;;;5115157;28;19920;-78
2022/02/12 05:07:58;;;;;;;;;;;;;;;;;;5115296;28;19923;-81
2022/02/12 05:10:23;;;;;;;;;;;;;;;;;;5115162;28;19920;-83
2022/02/12 05:12:49;;;;;;;;;;;;;;;;;;5114945;28;20303;-74
2022/02/12 05:15:14;;;;;;;;;;;;;;;;;;5115142;28;20287;-78
2022/02/12 05:17:39;;;;;;;;;;;;;;;;;;5115021;28;19923;-77
2022/02/12 05:20:05;;;;;;;;;;;;;;;;;;5096501;28;19965;-75
2022/02/12 05:22:31;;;;;;;;;;;;;;;;;;5114935;28;19915;-84
2022/02/12 05:24:56;;;;;;;;;;;;;;;;;;5114729;28;19963;-84
2022/02/12 05:27:22;;;;;;;;;;;;;;;;;;5114992;28;20010;-82
2022/02/12 05:29:47;;;;;;;;;;;;;;;;;;5114731;28;20368;-84
2022/02/12 05:32:13;;;;;;;;;;;;;;;;;;5114594;28;19919;-83
2022/02/12 05:34:38;;;;;;;;;;;;;;;;;;5114536;28;19961;-84
2022/02/12 05:37:04;;;;;;;;;;;;;;;;;;5114549;28;20337;-83
2022/02/12 05:39:29;;;;;;;;;;;;;;;;;;5114554;28;20333;-82
2022/02/12 05:41:55;;;;;;;;;;;;;;;;;;5130311;27;19912;-74
2022/02/12 05:44:20;;;;;;;;;;;;;;;;;;5114454;28;19916;-83
2022/02/12 05:46:45;;;;;;;;;;;;;;;;;;5096172;28;19950;-82
2022/02/12 05:49:11;;;;;;;;;;;;;;;;;;5114402;28;20414;-81
2022/02/12 05:51:36;;;;;;;;;;;;;;;;;;5114409;28;19972;-81
2022/02/12 05:54:03;;;;;;;;;;;;;;;;;;5113447;27;20022;-78
2022/02/12 05:56:28;;;;;;;;;;;;;;;;;;5095193;28;19967;-82
2022/02/12 05:58:54;;;;;;;;;;;;;;;;;;5094046;28;19959;-80
2022/02/12 06:01:20;;;;;;;;;;;;;;;;;;5093982;28;20333;-80
2022/02/12 06:03:45;;;;;;;;;;;;;;;;;;5093677;28;19939;-82
2022/02/12 06:06:10;;;;;;;;;;;;;;;;;;5109373;27;20279;-76
2022/02/12 06:08:36;;;;;;;;;;;;;;;;;;5103452;28;20355;-76
2022/02/12 06:11:04;;;;;;;;;;;;;;;;;;5099992;27;19927;-81
2022/02/12 06:13:29;;;;;;;;;;;;;;;;;;5111405;28;19911;-76
2022/02/12 06:15:55;;;;;;;;;;;;;;;;;;5103167;28;19919;-79
2022/02/12 06:18:20;;;;;;;;;;;;;;;;;;5103764;28;19965;-75
2022/02/12 06:20:46;;;;;;;;;;;;;;;;;;5100053;28;20298;-75
2022/02/12 06:23:11;;;;;;;;;;;;;;;;;;5105431;28;20483;-80
2022/02/12 06:25:37;;;;;;;;;;;;;;;;;;5112297;28;19916;-81
2022/02/12 06:28:04;;;;;;;;;;;;;;;;;;5098465;28;19971;-76
2022/02/12 06:30:30;;;;;;;;;;;;;;;;;;5106144;27;19924;-78
2022/02/12 06:32:59;;;;;;;;;;;;;;;;;;5108408;28;19926;-78
2022/02/12 06:35:25;;;;;;;;;;;;;;;;;;5113859;28;20336;-82
2022/02/12 06:37:50;;;;;;;;;;;;;;;;;;5113586;28;19967;-80
2022/02/12 06:40:17;;;;;;;;;;;;;;;;;;5100319;28;20272;-78
2022/02/12 06:42:42;;;;;;;;;;;;;;;;;;5093121;28;19961;-84
2022/02/12 06:45:09;;;;;;;;;;;;;;;;;;5093150;28;19920;-77
2022/02/12 06:47:34;;;;;;;;;;;;;;;;;;5094298;28;20446;-80
2022/02/12 06:49:59;;;;;;;;;;;;;;;;;;5110041;28;19916;-81
2022/02/12 06:52:25;;;;;;;;;;;;;;;;;;5102472;28;19927;-82
2022/02/12 06:54:50;;;;;;;;;;;;;;;;;;5094063;28;20055;-85
2022/02/12 06:57:16;;;;;;;;;;;;;;;;;;5094010;28;20388;-82
2022/02/12 06:59:42;;;;;;;;;;;;;;;;;;5098920;28;20291;-80
2022/02/12 07:02:07;;;;;;;;;;;;;;;;;;5097857;28;19927;-83
2022/02/12 07:04:33;;;;;;;;;;;;;;;;;;5098493;28;19920;-82
2022/02/12 07:06:58;;;;;;;;;;;;;;;;;;5100070;28;19930;-81
2022/02/12 07:09:24;;;;;;;;;;;;;;;;;;5101258;28;19969;-79
2022/02/12 07:11:49;;;;;;;;;;;;;;;;;;5102149;28;19943;-82
2022/02/12 07:14:15;;;;;;;;;;;;;;;;;;5102654;28;19927;-77
2022/02/12 07:16:40;;;;;;;;;;;;;;;;;;5102844;28;19915;-85
2022/02/12 07:19:05;;;;;;;;;;;;;;;;;;5101864;28;19923;-86
2022/02/12 07:21:34;;;;;;;;;;;;;;;;;;5099535;28;19916;-81
2022/02/12 07:24:00;;;;;;;;;;;;;;;;;;5094867;28;19928;-78
2022/02/12 07:26:25;;;;;;;;;;;;;;;;;;5097109;28;19969;-85
2022/02/12 07:28:51;;;;;;;;;;;;;;;;;;5103365;27;19923;-75
2022/02/12 07:31:18;;;;;;;;;;;;;;;;;;5129465;27;19965;-82
2022/02/12 07:33:43;;;;;;;;;;;;;;;;;;5128088;27;19923;-77
2022/02/12 07:36:11;;;;;;;;;;;;;;;;;;5111105;28;20368;-81
2022/02/12 07:38:36;;;;;;;;;;;;;;;;;;5096534;28;19961;-76
2022/02/12 07:41:02;;;;;;;;;;;;;;;;;;5096426;28;19919;-75
2022/02/12 07:43:27;;;;;;;;;;;;;;;;;;5096094;28;19969;-84
2022/02/12 07:45:54;;;;;;;;;;;;;;;;;;5096369;28;19959;-77
2022/02/12 07:48:20;;;;;;;;;;;;;;;;;;5096321;28;19973;-77
2022/02/12 07:50:45;;;;;;;;;;;;;;;;;;5096146;28;20011;-83
2022/02/12 07:53:13;;;;;;;;;;;;;;;;;;5096061;28;19912;-82
2022/02/12 07:55:39;;;;;;;;;;;;;;;;;;5096252;28;19922;-83
2022/02/12 07:58:05;;;;;;;;;;;;;;;;;;5096155;28;19927;-76
2022/02/12 08:00:30;;;;;;;;;;;;;;;;;;5112125;28;19924;-76
2022/02/12 08:02:57;;;;;;;;;;;;;;;;;;5095906;28;19955;-84
2022/02/12 08:05:22;;;;;;;;;;;;;;;;;;5096237;28;20010;-84
2022/02/12 08:07:48;;;;;;;;;;;;;;;;;;5096015;28;20043;-75
2022/02/12 08:12:58;;;;;;;;;;;;;;;;;;5096148;28;19931;-84
2022/02/12 08:15:24;;;;;;;;;;;;;;;;;;5095767;28;20326;-83
2022/02/12 08:17:49;;;;;;;;;;;;;;;;;;5095965;28;19916;-84
2022/02/12 08:20:15;;;;;;;;;;;;;;;;;;5095714;28;19916;-78
2022/02/12 08:22:40;;;;;;;;;;;;;;;;;;5095568;28;20375;-85
2022/02/12 08:25:06;;;;;;;;;;;;;;;;;;5095788;28;20025;-84
2022/02/12 08:27:32;;;;;;;;;;;;;;;;;;5095544;28;20280;-84
2022/02/12 08:29:57;;;;;;;;;;;;;;;;;;5095483;28;19919;-80
2022/02/12 08:32:27;;;;;;;;;;;;;;;;;;5095776;28;19916;-79
2022/02/12 08:34:52;;;;;;;;;;;;;;;;;;5095367;28;19959;-82
2022/02/12 08:37:18;;;;;;;;;;;;;;;;;;5095353;28;19952;-83
2022/02/12 08:39:44;;;;;;;;;;;;;;;;;;5094941;28;20422;-83
2022/02/12 08:42:09;;;;;;;;;;;;;;;;;;5095280;28;20007;-84
2022/02/12 08:44:35;;;;;;;;;;;;;;;;;;5095896;28;20015;-84
2022/02/12 08:47:00;;;;;;;;;;;;;;;;;;5095217;28;20342;-84
2022/02/12 08:49:26;;;;;;;;;;;;;;;;;;5095243;28;19923;-84
2022/02/12 08:51:52;;;;;;;;;;;;;;;;;;5095174;28;19916;-83
2022/02/12 08:54:18;;;;;;;;;;;;;;;;;;5094828;28;19927;-84
2022/02/12 08:56:44;;;;;;;;;;;;;;;;;;5094934;28;20292;-84
2022/02/12 08:59:10;;;;;;;;;;;;;;;;;;5095168;28;19968;-76
2022/02/12 09:01:37;;;;;;;;;;;;;;;;;;5095137;28;20420;-81
2022/02/12 09:04:03;;;;;;;;;;;;;;;;;;5094868;28;19919;-83
2022/02/12 09:06:29;;;;;;;;;;;;;;;;;;5095225;28;20025;-82
2022/02/12 09:08:56;;;;;;;;;;;;;;;;;;5095186;28;20380;-84
2022/02/12 09:11:22;;;;;;;;;;;;;;;;;;5094909;28;19920;-84
2022/02/12 09:13:49;;;;;;;;;;;;;;;;;;5094861;28;19924;-78
2022/02/12 09:16:15;;;;;;;;;;;;;;;;;;5094756;28;20003;-83
2022/02/12 09:18:41;;;;;;;;;;;;;;;;;;5094912;28;19998;-79
2022/02/12 09:21:06;;;;;;;;;;;;;;;;;;5094666;28;20402;-77
2022/02/12 09:23:31;;;;;;;;;;;;;;;;;;5094614;28;20007;-79
2022/02/12 09:25:57;;;;;;;;;;;;;;;;;;5094691;28;19916;-84
2022/02/12 09:28:22;;;;;;;;;;;;;;;;;;5094652;28;19972;-86
2022/02/12 09:30:48;;;;;;;;;;;;;;;;;;5094509;28;19962;-77
2022/02/12 09:33:13;;;;;;;;;;;;;;;;;;5094592;28;20080;-81
2022/02/12 09:35:39;;;;;;;;;;;;;;;;;;5094555;28;19923;-86
2022/02/12 09:38:04;;;;;;;;;;;;;;;;;;5094474;28;20288;-83
2022/02/12 09:40:31;;;;;;;;;;;;;;;;;;5094394;28;19920;-82
2022/02/12 09:42:58;;;;;;;;;;;;;;;;;;5075956;28;20368;-77
2022/02/12 09:45:25;;;;;;;;;;;;;;;;;;5094143;28;19966;-83
2022/02/12 09:47:50;;;;;;;;;;;;;;;;;;5094153;28;19916;-76
2022/02/12 09:50:16;;;;;;;;;;;;;;;;;;5093778;28;20414;-77
2022/02/12 09:52:45;;;;;;;;;;;;;;;;;;5093571;28;19985;-83
2022/02/12 09:55:11;;;;;;;;;;;;;;;;;;5093812;28;19920;-83
2022/02/12 09:57:37;;;;;;;;;;;;;;;;;;5093832;28;19957;-81
2022/02/12 10:00:04;;;;;;;;;;;;;;;;;;5093912;28;20386;-82
2022/02/12 10:02:29;;;;;;;;;;;;;;;;;;5093841;28;19912;-82
2022/02/12 10:05:13;;;;;;;;;;;;;;;;;;5093690;28;20378;-76
2022/02/12 10:07:39;;;;;;;;;;;;;;;;;;5094000;28;20303;-82
2022/02/12 10:10:11;;;;;;;;;;;;;;;;;;5093703;28;19916;-80
2022/02/12 10:12:37;;;;;;;;;;;;;;;;;;5093524;28;19916;-81
2022/02/12 10:15:02;;;;;;;;;;;;;;;;;;5093548;28;19927;-82
2022/02/12 10:17:28;;;;;;;;;;;;;;;;;;5093518;28;19916;-81
2022/02/12 10:19:53;;;;;;;;;;;;;;;;;;5093528;28;20319;-80
2022/02/12 10:22:19;;;;;;;;;;;;;;;;;;5093789;28;20284;-82
2022/02/12 10:24:45;;;;;;;;;;;;;;;;;;5093289;28;20261;-83
2022/02/12 10:27:10;;;;;;;;;;;;;;;;;;5093442;28;20404;-83
2022/02/12 10:29:36;;;;;;;;;;;;;;;;;;5093402;28;19919;-82
2022/02/12 10:32:01;;;;;;;;;;;;;;;;;;5093357;28;19923;-82
2022/02/12 10:34:36;;;;;;;;;;;;;;;;;;5093552;28;19916;-83
2022/02/12 10:37:03;;;;;;;;;;;;;;;;;;5075087;28;20005;-80
2022/02/12 10:39:28;;;;;;;;;;;;;;;;;;5093223;28;19916;-81
2022/02/12 10:42:04;;;;;;;;;;;;;;;;;;5093226;28;20006;-81
2022/02/12 10:44:30;;;;;;;;;;;;;;;;;;5093146;28;20367;-81
2022/02/12 10:46:55;;;;;;;;;;;;;;;;;;5093379;28;20283;-81
2022/02/12 10:49:24;;;;;;;;;;;;;;;;;;5093478;28;19965;-81
2022/02/12 10:51:51;;;;;;;;;;;;;;;;;;5108966;28;19916;-79
2022/02/12 10:54:19;;;;;;;;;;;;;;;;;;5092804;28;19923;-81
2022/02/12 10:56:54;;;;;;;;;;;;;;;;;;5092943;28;19960;-81
2022/02/12 10:59:21;;;;;;;;;;;;;;;;;;5093098;28;19912;-81
2022/02/12 11:01:46;;;;;;;;;;;;;;;;;;5093150;28;20014;-81
2022/02/12 11:04:18;;;;;;;;;;;;;;;;;;5097156;28;20018;-82
2022/02/12 11:06:46;;;;;;;;;;;;;;;;;;5097034;28;19959;-82
2022/02/12 11:09:11;;;;;;;;;;;;;;;;;;5097093;28;19923;-82
2022/02/12 11:11:36;;;;;;;;;;;;;;;;;;5096987;28;20318;-81
2022/02/12 11:14:02;;;;;;;;;;;;;;;;;;5097089;28;19973;-82
2022/02/12 11:16:28;;;;;;;;;;;;;;;;;;5097009;28;20395;-76
2022/02/12 11:18:54;;;;;;;;;;;;;;;;;;5096775;28;19924;-79
2022/02/12 11:21:21;;;;;;;;;;;;;;;;;;5097006;28;19916;-76
2022/02/12 11:23:59;;;;;;;;;;;;;;;;;;5096705;28;19916;-81
2022/02/12 11:26:25;;;;;;;;;;;;;;;;;;5096782;28;20010;-76
2022/02/12 11:28:50;;;;;;;;;;;;;;;;;;5096589;28;19970;-76
2022/02/12 11:31:20;;;;;;;;;;;;;;;;;;5097293;28;19916;-82
2022/02/12 11:34:04;;;;;;;;;;;;;;;;;;5097496;28;19919;-84
2022/02/12 11:36:30;;;;;;;;;;;;;;;;;;5097036;28;19920;-85
2022/02/12 11:39:15;;;;;;;;;;;;;;;;;;5096411;28;19912;-79
2022/02/12 11:41:44;;;;;;;;;;;;;;;;;;5096401;28;20372;-82
2022/02/12 11:44:10;;;;;;;;;;;;;;;;;;5096370;28;19927;-80
2022/02/12 11:46:51;;;;;;;;;;;;;;;;;;5096365;28;19916;-82
2022/02/12 11:49:27;;;;;;;;;;;;;;;;;;5096277;28;19912;-81
2022/02/12 11:51:53;;;;;;;;;;;;;;;;;;5096201;28;19970;-79
2022/02/12 11:54:37;;;;;;;;;;;;;;;;;;5096078;28;19955;-76
2022/02/12 11:57:02;;;;;;;;;;;;;;;;;;5096133;28;19920;-79
2022/02/12 11:59:28;;;;;;;;;;;;;;;;;;5096209;28;19923;-81
2022/02/12 12:01:53;;;;;;;;;;;;;;;;;;5096202;28;19915;-79
2022/02/12 12:04:21;;;;;;;;;;;;;;;;;;5096000;28;19916;-85
2022/02/12 12:07:02;;;;;;;;;;;;;;;;;;5095995;28;19920;-81
2022/02/12 12:09:31;;;;;;;;;;;;;;;;;;5096106;28;19969;-77
2022/02/12 12:12:15;;;;;;;;;;;;;;;;;;5096138;28;20284;-78
2022/02/12 12:14:41;;;;;;;;;;;;;;;;;;5095032;28;19920;-83
2022/02/12 12:17:07;;;;;;;;;;;;;;;;;;5095844;28;19916;-81
2022/02/12 12:19:33;;;;;;;;;;;;;;;;;;5095850;28;19916;-81
2022/02/12 12:22:00;;;;;;;;;;;;;;;;;;5095718;28;19916;-83
2022/02/12 12:24:25;;;;;;;;;;;;;;;;;;5095681;28;19916;-81
2022/02/12 12:26:51;;;;;;;;;;;;;;;;;;5095503;28;20283;-81
2022/02/12 12:32:07;;;;;;;;;;;;;;;;;;5095928;28;19922;-78
2022/02/12 12:34:33;;;;;;;;;;;;;;;;;;5095550;28;20011;-75
2022/02/12 12:36:59;;;;;;;;;;;;;;;;;;5095412;28;20035;-76
2022/02/12 12:39:32;;;;;;;;;;;;;;;;;;5095260;28;20390;-82
2022/02/12 12:41:58;;;;;;;;;;;;;;;;;;5095527;28;20364;-76
2022/02/12 12:44:23;;;;;;;;;;;;;;;;;;5095416;28;20003;-81
2022/02/12 12:46:50;;;;;;;;;;;;;;;;;;5095543;28;19920;-78
2022/02/12 12:49:29;;;;;;;;;;;;;;;;;;5096105;28;19916;-81
2022/02/12 12:51:55;;;;;;;;;;;;;;;;;;5098530;28;19920;-83
2022/02/12 12:54:31;;;;;;;;;;;;;;;;;;5102282;28;19924;-80
2022/02/12 12:56:57;;;;;;;;;;;;;;;;;;5103823;28;19916;-76
2022/02/12 12:59:23;;;;;;;;;;;;;;;;;;5101773;28;19920;-79
2022/02/12 13:02:01;;;;;;;;;;;;;;;;;;5095246;28;19938;-82
2022/02/12 13:04:28;;;;;;;;;;;;;;;;;;5095081;28;20316;-76
2022/02/12 13:06:55;;;;;;;;;;;;;;;;;;5094965;28;19999;-77
2022/02/12 13:09:20;;;;;;;;;;;;;;;;;;5094849;28;19912;-82
2022/02/12 13:11:46;;;;;;;;;;;;;;;;;;5094828;28;19965;-82
2022/02/12 13:14:11;;;;;;;;;;;;;;;;;;5094999;28;19920;-83
2022/02/12 13:16:41;;;;;;;;;;;;;;;;;;5094776;28;19948;-81
2022/02/12 13:19:13;;;;;;;;;;;;;;;;;;5094682;28;19926;-79
2022/02/12 13:21:44;;;;;;;;;;;;;;;;;;5094755;28;19912;-77
2022/02/12 13:24:09;;;;;;;;;;;;;;;;;;5094741;28;19916;-76
2022/02/12 13:26:37;;;;;;;;;;;;;;;;;;5093409;28;19924;-77
2022/02/12 13:29:02;;;;;;;;;;;;;;;;;;5076499;28;20407;-77
2022/02/12 13:31:28;;;;;;;;;;;;;;;;;;5094514;28;19952;-84
2022/02/12 13:33:59;;;;;;;;;;;;;;;;;;5094505;28;19931;-79
2022/02/12 13:36:25;;;;;;;;;;;;;;;;;;5094389;28;19916;-81
2022/02/12 13:38:51;;;;;;;;;;;;;;;;;;5094228;28;20016;-80
2022/02/12 13:41:17;;;;;;;;;;;;;;;;;;5094285;28;20010;-79
2022/02/12 13:43:46;;;;;;;;;;;;;;;;;;5094131;28;19931;-78
2022/02/12 13:46:12;;;;;;;;;;;;;;;;;;5094218;28;19923;-78
2022/02/12 13:48:43;;;;;;;;;;;;;;;;;;5094107;28;19916;-82
2022/02/12 13:51:10;;;;;;;;;;;;;;;;;;5094147;28;19920;-83
2022/02/12 13:53:43;;;;;;;;;;;;;;;;;;5093811;28;20354;-82
2022/02/12 13:56:09;;;;;;;;;;;;;;;;;;5093831;28;19934;-83
2022/02/12 13:58:35;;;;;;;;;;;;;;;;;;5093887;28;19916;-79
2022/02/12 14:01:00;;;;;;;;;;;;;;;;;;5093683;28;20003;-81
2022/02/12 14:03:41;;;;;;;;;;;;;;;;;;5093721;28;19943;-82
2022/02/12 14:06:08;;;;;;;;;;;;;;;;;;5093779;28;19916;-82
2022/02/12 14:08:34;;;;;;;;;;;;;;;;;;5093687;28;20287;-81
2022/02/12 14:10:59;;;;;;;;;;;;;;;;;;5093717;28;20015;-82
2022/02/12 14:13:25;;;;;;;;;;;;;;;;;;5093717;28;19920;-76
2022/02/12 14:15:50;;;;;;;;;;;;;;;;;;5093742;28;19924;-79
2022/02/12 14:18:17;;;;;;;;;;;;;;;;;;5093750;28;19916;-82
2022/02/12 14:20:43;;;;;;;;;;;;;;;;;;5093383;28;19923;-79
2022/02/12 14:23:08;;;;;;;;;;;;;;;;;;5093698;28;19916;-81
2022/02/12 14:25:35;;;;;;;;;;;;;;;;;;5093380;28;20308;-78
2022/02/12 14:28:01;;;;;;;;;;;;;;;;;;5093438;28;20505;-79
2022/02/12 14:30:26;;;;;;;;;;;;;;;;;;5093310;28;19926;-82
2022/02/12 14:32:52;;;;;;;;;;;;;;;;;;5093395;28;19916;-79
2022/02/12 14:35:17;;;;;;;;;;;;;;;;;;5093454;28;20021;-78
2022/02/12 14:37:44;;;;;;;;;;;;;;;;;;5074766;28;20386;-83
2022/02/12 14:40:10;;;;;;;;;;;;;;;;;;5093341;28;19923;-75
2022/02/12 14:42:35;;;;;;;;;;;;;;;;;;5093584;28;19916;-79
2022/02/12 14:45:00;;;;;;;;;;;;;;;;;;5074925;28;19939;-79
2022/02/12 14:47:26;;;;;;;;;;;;;;;;;;5093484;28;19916;-75
2022/02/12 14:49:51;;;;;;;;;;;;;;;;;;5093475;28;19951;-82
2022/02/12 14:52:17;;;;;;;;;;;;;;;;;;5093267;28;19920;-83
2022/02/12 14:54:43;;;;;;;;;;;;;;;;;;5092812;28;20018;-82
2022/02/12 14:57:08;;;;;;;;;;;;;;;;;;5093065;28;19970;-77
2022/02/12 14:59:34;;;;;;;;;;;;;;;;;;5093163;28;19916;-78
2022/02/12 15:02:00;;;;;;;;;;;;;;;;;;5093103;28;19969;-78
2022/02/12 15:04:25;;;;;;;;;;;;;;;;;;5092889;28;20363;-76
2022/02/12 15:06:51;;;;;;;;;;;;;;;;;;5092902;28;19923;-82
2022/02/12 15:09:16;;;;;;;;;;;;;;;;;;5092953;28;20261;-82
2022/02/12 15:11:42;;;;;;;;;;;;;;;;;;5092912;28;19962;-83
2022/02/12 15:14:08;;;;;;;;;;;;;;;;;;5092940;28;19985;-75
2022/02/12 15:16:34;;;;;;;;;;;;;;;;;;5092904;28;19939;-80
2022/02/12 15:19:00;;;;;;;;;;;;;;;;;;5092820;28;20000;-83
2022/02/12 15:21:26;;;;;;;;;;;;;;;;;;5092878;28;19911;-76
2022/02/12 15:23:51;;;;;;;;;;;;;;;;;;5092848;28;19916;-81
2022/02/12 15:26:17;;;;;;;;;;;;;;;;;;5092850;28;19951;-80
2022/02/12 15:28:42;;;;;;;;;;;;;;;;;;5092705;28;20373;-81
2022/02/12 15:31:09;;;;;;;;;;;;;;;;;;5092827;28;19959;-82
2022/02/12 15:33:35;;;;;;;;;;;;;;;;;;5092813;28;19916;-81
2022/02/12 15:36:03;;;;;;;;;;;;;;;;;;5092804;28;19923;-78
2022/02/12 15:38:31;;;;;;;;;;;;;;;;;;5092688;28;19916;-82
2022/02/12 15:40:57;;;;;;;;;;;;;;;;;;5092570;28;19916;-76
2022/02/12 15:43:23;;;;;;;;;;;;;;;;;;5092515;28;19975;-80
2022/02/12 15:45:48;;;;;;;;;;;;;;;;;;5092998;28;19962;-78
2022/02/12 15:48:14;;;;;;;;;;;;;;;;;;5074501;28;19923;-79
2022/02/12 15:50:39;;;;;;;;;;;;;;;;;;5095677;28;19916;-81
2022/02/12 15:53:05;;;;;;;;;;;;;;;;;;5096320;28;20421;-80
2022/02/12 15:55:31;;;;;;;;;;;;;;;;;;5096164;28;19920;-81
2022/02/12 15:57:58;;;;;;;;;;;;;;;;;;5096309;28;20036;-79
2022/02/12 16:00:24;;;;;;;;;;;;;;;;;;5096174;28;19920;-78
2022/02/12 16:02:49;;;;;;;;;;;;;;;;;;5096023;28;20053;-77
2022/02/12 16:05:16;;;;;;;;;;;;;;;;;;5096280;28;19916;-76
2022/02/12 16:07:41;;;;;;;;;;;;;;;;;;5077856;28;20455;-76
2022/02/12 16:10:07;;;;;;;;;;;;;;;;;;5095970;28;19920;-80
2022/02/12 16:12:33;;;;;;;;;;;;;;;;;;5095966;28;19922;-81
2022/02/12 16:14:58;;;;;;;;;;;;;;;;;;5095717;28;19916;-81
2022/02/12 16:17:24;;;;;;;;;;;;;;;;;;5095858;28;20322;-76
2022/02/12 16:19:49;;;;;;;;;;;;;;;;;;5095808;28;19942;-82
2022/02/12 16:22:15;;;;;;;;;;;;;;;;;;5095799;28;19961;-79
2022/02/12 16:24:40;;;;;;;;;;;;;;;;;;5095620;28;19916;-81
2022/02/12 16:27:06;;;;;;;;;;;;;;;;;;5095919;28;19916;-82
2022/02/12 16:29:32;;;;;;;;;;;;;;;;;;5095689;28;20288;-81
2022/02/12 16:31:58;;;;;;;;;;;;;;;;;;5095589;28;19969;-78
2022/02/12 16:34:23;;;;;;;;;;;;;;;;;;5095549;28;19931;-77
2022/02/12 16:36:49;;;;;;;;;;;;;;;;;;5095451;28;19916;-80
2022/02/12 16:39:14;;;;;;;;;;;;;;;;;;5095516;28;19917;-77
2022/02/12 16:41:40;;;;;;;;;;;;;;;;;;5095282;28;20283;-78
2022/02/12 16:44:06;;;;;;;;;;;;;;;;;;5095226;28;19916;-80
2022/02/12 16:46:31;;;;;;;;;;;;;;;;;;5095217;28;19916;-80
2022/02/12 16:48:57;;;;;;;;;;;;;;;;;;5095362;28;19916;-78
2022/02/12 16:51:25;;;;;;;;;;;;;;;;;;5095173;28;19923;-80